Time;durP1;ratioP1;P1;durP2;ratioP2;P2;SDS_P1;SDS_P2;PMS_P1;PMS_P2;Temp;Humidity;BMP_temperature;BMP_pressure;BME280_temperature;BME280_humidity;BME280_pressure;Samples;Min_cycle;Max_cycle;Signal;HPM_P1;HPM_P2
2022/04/24 00:01:49;;;;;;;18.52;9.50;;;;;;;11.49;50.47;100149.50;5033792;28;20068;-53
2022/04/24 00:04:14;;;;;;;18.83;9.70;;;;;;;11.44;50.91;100160.72;5051823;28;20021;-54
2022/04/24 00:06:41;;;;;;;19.50;9.70;;;;;;;11.36;51.08;100162.38;5051537;28;20382;-53
2022/04/24 00:09:07;;;;;;;19.05;9.88;;;;;;;11.28;51.47;100154.91;5033320;28;20326;-52
2022/04/24 00:11:32;;;;;;;17.88;9.52;;;;;;;11.24;51.79;100155.56;5051404;28;20028;-53
2022/04/24 00:13:58;;;;;;;18.75;9.70;;;;;;;11.21;51.35;100155.41;5051163;28;20029;-54
2022/04/24 00:16:23;;;;;;;19.35;9.93;;;;;;;11.17;51.77;100140.56;5051723;28;20323;-53
2022/04/24 00:18:48;;;;;;;18.67;10.35;;;;;;;11.11;52.09;100144.66;5033989;28;20541;-51
2022/04/24 00:21:14;;;;;;;19.25;9.93;;;;;;;11.06;51.94;100146.44;5051848;28;20028;-54
2022/04/24 00:23:39;;;;;;;18.50;9.90;;;;;;;11.02;52.28;100139.13;5052078;28;20036;-52
2022/04/24 00:26:05;;;;;;;18.83;10.05;;;;;;;10.99;52.18;100139.78;5033829;28;20132;-53
2022/04/24 00:28:30;;;;;;;19.88;9.80;;;;;;;10.94;52.48;100135.22;5051282;28;20405;-53
2022/04/24 00:30:55;;;;;;;18.33;10.43;;;;;;;10.89;52.88;100138.16;5051501;28;20064;-50
2022/04/24 00:33:21;;;;;;;19.52;10.35;;;;;;;10.87;52.73;100137.66;5033538;28;20027;-53
2022/04/24 00:35:46;;;;;;;19.38;10.02;;;;;;;10.82;53.11;100130.31;5055271;28;20461;-52
2022/04/24 00:38:12;;;;;;;18.52;10.20;;;;;;;10.78;52.97;100140.44;5055126;28;20037;-56
2022/04/24 00:40:37;;;;;;;18.33;9.85;;;;;;;10.74;53.22;100140.28;5055204;28;20029;-54
2022/04/24 00:43:02;;;;;;;18.13;9.93;;;;;;;10.68;53.36;100126.91;5055034;28;20025;-54
2022/04/24 00:45:28;;;;;;;18.38;9.98;;;;;;;10.68;53.54;100129.69;5055206;28;20037;-53
2022/04/24 00:47:56;;;;;;;19.38;10.23;;;;;;;10.67;53.83;100130.81;5055000;28;20033;-53
2022/04/24 00:50:21;;;;;;;18.70;10.20;;;;;;;10.61;53.72;100124.63;5036653;28;20440;-54
2022/04/24 00:52:47;;;;;;;19.83;10.70;;;;;;;10.57;53.91;100126.44;5054684;28;20029;-53
2022/04/24 00:55:12;;;;;;;18.88;10.32;;;;;;;10.57;53.74;100130.00;5054989;28;20060;-53
2022/04/24 00:57:41;;;;;;;19.38;10.23;;;;;;;10.53;53.99;100120.72;5054627;28;20079;-52
2022/04/24 01:00:07;;;;;;;19.10;9.80;;;;;;;10.49;54.58;100118.91;5054637;28;20100;-53
2022/04/24 01:02:33;;;;;;;19.05;10.43;;;;;;;10.44;54.51;100119.88;5054643;28;20037;-54
2022/04/24 01:04:59;;;;;;;20.00;10.35;;;;;;;10.42;54.27;100128.50;5054433;28;20098;-54
2022/04/24 01:07:24;;;;;;;18.88;10.05;;;;;;;10.37;54.57;100128.69;5054259;28;20040;-53
2022/04/24 01:09:49;;;;;;;18.23;9.73;;;;;;;10.37;54.40;100133.34;5053985;28;20024;-53
2022/04/24 01:12:14;;;;;;;19.05;10.00;;;;;;;10.35;54.67;100136.44;5054245;28;20033;-53
2022/04/24 01:14:40;;;;;;;18.42;9.73;;;;;;;10.32;54.61;100133.50;5054242;28;20033;-53
2022/04/24 01:17:06;;;;;;;19.50;10.23;;;;;;;10.30;55.01;100133.81;5036069;28;20456;-53
2022/04/24 01:19:32;;;;;;;19.10;10.23;;;;;;;10.26;54.92;100127.31;5054355;28;20080;-53
2022/04/24 01:21:58;;;;;;;19.20;10.27;;;;;;;10.24;55.19;100129.59;5036093;28;20334;-52
2022/04/24 01:24:25;;;;;;;19.20;10.32;;;;;;;10.15;54.82;100122.09;5054213;28;20161;-53
2022/04/24 01:26:51;;;;;;;18.70;10.25;;;;;;;10.19;54.81;100127.78;5053559;28;20135;-53
2022/04/24 01:29:17;;;;;;;20.27;10.00;;;;;;;10.20;55.02;100131.38;5053584;28;20446;-53
2022/04/24 01:31:45;;;;;;;19.13;10.05;;;;;;;10.17;55.21;100132.00;5053374;28;20036;-54
2022/04/24 01:34:11;;;;;;;19.13;10.32;;;;;;;10.11;55.11;100132.13;5035944;28;20029;-53
2022/04/24 01:36:37;;;;;;;20.00;10.68;;;;;;;10.09;55.30;100133.59;5053352;28;20017;-51
2022/04/24 01:39:03;;;;;;;18.50;10.23;;;;;;;10.08;55.34;100130.03;5035416;28;20417;-53
2022/04/24 01:41:29;;;;;;;19.77;10.77;;;;;;;10.07;55.54;100135.88;5053647;28;20103;-53
2022/04/24 01:43:54;;;;;;;19.38;10.70;;;;;;;9.99;55.62;100145.78;5053654;28;20056;-53
2022/04/24 01:46:20;;;;;;;20.15;10.40;;;;;;;9.93;56.12;100144.28;5052489;28;20103;-50
2022/04/24 01:48:45;;;;;;;19.25;10.23;;;;;;;9.84;56.58;100136.75;5035149;28;20034;-52
2022/04/24 01:51:11;;;;;;;18.63;10.02;;;;;;;9.80;56.54;100135.78;5053029;28;20103;-53
2022/04/24 01:53:37;;;;;;;19.45;10.25;;;;;;;9.73;56.89;100140.94;5053948;28;20032;-52
2022/04/24 01:56:04;;;;;;;21.58;10.40;;;;;;;9.67;57.00;100134.75;5053497;28;20025;-52
2022/04/24 01:58:30;;;;;;;19.05;10.30;;;;;;;9.64;57.10;100143.66;5054184;28;20116;-53
2022/04/24 02:00:56;;;;;;;19.38;10.10;;;;;;;9.65;57.18;100139.78;5053585;28;20060;-54
2022/04/24 02:03:23;;;;;;;19.20;10.90;;;;;;;9.63;57.44;100141.22;5053271;28;20397;-53
2022/04/24 02:05:48;;;;;;;19.88;10.60;;;;;;;9.62;57.06;100132.13;5035017;28;20036;-53
2022/04/24 02:08:14;;;;;;;19.40;11.00;;;;;;;9.62;57.15;100131.31;5053336;28;20032;-51
2022/04/24 02:10:41;;;;;;;18.92;10.40;;;;;;;9.64;57.05;100138.16;5053055;28;20057;-54
2022/04/24 02:13:06;;;;;;;19.80;10.40;;;;;;;9.67;56.92;100140.28;5053126;28;20029;-53
2022/04/24 02:15:33;;;;;;;19.88;11.23;;;;;;;9.63;57.26;100136.50;5053170;28;20096;-53
2022/04/24 02:17:58;;;;;;;19.55;10.88;;;;;;;9.64;57.24;100142.84;5053635;28;20035;-54
2022/04/24 02:20:24;;;;;;;19.38;11.30;;;;;;;9.62;57.26;100140.41;5053107;28;20368;-51
2022/04/24 02:22:50;;;;;;;19.70;10.88;;;;;;;9.62;57.52;100139.59;5053376;28;20029;-54
2022/04/24 02:25:15;;;;;;;20.45;11.18;;;;;;;9.58;57.75;100144.94;5056993;28;20103;-54
2022/04/24 02:27:41;;;;;;;20.90;11.57;;;;;;;9.57;57.84;100136.97;5072560;28;20072;-54
2022/04/24 02:30:07;;;;;;;20.38;11.70;;;;;;;9.51;57.98;100142.63;5073022;28;20127;-55
2022/04/24 02:32:33;;;;;;;20.73;11.90;;;;;;;9.46;57.97;100128.94;5073162;28;20032;-54
2022/04/24 02:34:59;;;;;;;20.63;12.20;;;;;;;9.41;58.03;100137.38;5072939;28;20070;-54
2022/04/24 02:37:25;;;;;;;20.98;11.48;;;;;;;9.37;58.64;100130.84;5072473;28;20027;-54
2022/04/24 02:39:51;;;;;;;21.40;11.25;;;;;;;9.30;58.49;100125.78;5073088;28;20469;-55
2022/04/24 02:42:17;;;;;;;20.75;12.20;;;;;;;9.27;58.71;100136.63;5072705;28;20085;-55
2022/04/24 02:44:42;;;;;;;21.13;12.48;;;;;;;9.20;58.96;100126.84;5072333;28;20024;-54
2022/04/24 02:47:07;;;;;;;19.67;11.60;;;;;;;9.21;59.15;100141.44;5072762;28;20300;-54
2022/04/24 02:49:32;;;;;;;20.92;12.13;;;;;;;9.15;59.35;100138.03;5072430;28;20024;-52
2022/04/24 02:51:58;;;;;;;20.73;11.70;;;;;;;9.10;59.68;100135.38;5054449;28;20134;-53
2022/04/24 02:54:23;;;;;;;20.85;11.70;;;;;;;9.08;59.66;100140.38;5072844;28;20040;-54
2022/04/24 02:56:48;;;;;;;21.08;12.05;;;;;;;9.02;59.93;100139.69;5071934;28;20074;-54
2022/04/24 02:59:16;;;;;;;21.10;12.52;;;;;;;8.96;60.19;100138.19;5072199;28;20028;-54
2022/04/24 03:01:41;;;;;;;20.75;11.98;;;;;;;8.93;60.25;100143.53;5072688;28;20111;-54
2022/04/24 03:04:07;;;;;;;20.80;12.27;;;;;;;8.88;60.42;100150.78;5072073;28;20167;-52
2022/04/24 03:06:32;;;;;;;22.20;12.38;;;;;;;8.86;60.88;100153.06;5071984;28;20036;-52
2022/04/24 03:08:57;;;;;;;21.63;13.00;;;;;;;8.83;60.89;100145.41;5071907;28;20025;-52
2022/04/24 03:11:23;;;;;;;21.50;12.50;;;;;;;8.81;60.88;100144.09;5072006;28;20028;-52
2022/04/24 03:13:48;;;;;;;22.02;12.43;;;;;;;8.76;61.16;100133.16;5072323;28;20028;-53
2022/04/24 03:16:13;;;;;;;21.75;12.15;;;;;;;8.75;61.12;100140.63;5072367;28;20050;-53
2022/04/24 03:18:38;;;;;;;21.65;11.98;;;;;;;8.72;61.51;100131.03;5071789;28;20020;-53
2022/04/24 03:21:04;;;;;;;20.38;11.60;;;;;;;8.67;61.78;100144.94;5071699;28;20460;-53
2022/04/24 03:23:29;;;;;;;20.80;11.98;;;;;;;8.61;62.04;100146.19;5071823;28;20023;-53
2022/04/24 03:25:54;;;;;;;21.00;12.38;;;;;;;8.58;62.28;100144.84;5071712;28;20048;-54
2022/04/24 03:28:19;;;;;;;20.98;12.80;;;;;;;8.55;62.38;100147.41;5071562;28;20036;-52
2022/04/24 03:30:45;;;;;;;21.30;12.95;;;;;;;8.49;62.75;100146.72;5071819;28;20111;-52
2022/04/24 03:33:10;;;;;;;22.05;12.85;;;;;;;8.48;62.93;100149.75;5053880;28;20071;-53
2022/04/24 03:35:36;;;;;;;21.65;12.70;;;;;;;8.43;63.04;100154.25;5071741;28;20024;-53
2022/04/24 03:38:03;;;;;;;22.27;12.77;;;;;;;8.41;63.20;100145.47;5071735;28;20044;-52
2022/04/24 03:40:28;;;;;;;22.65;12.98;;;;;;;8.35;63.71;100143.13;5072047;28;20033;-53
2022/04/24 03:42:54;;;;;;;21.58;12.63;;;;;;;8.33;63.70;100145.38;5053899;28;20177;-52
2022/04/24 03:45:19;;;;;;;21.80;12.75;;;;;;;8.30;63.99;100149.56;5072535;28;20028;-55
2022/04/24 03:47:47;;;;;;;21.70;12.13;;;;;;;8.23;64.58;100147.22;5072520;28;20028;-54
2022/04/24 03:50:13;;;;;;;21.20;12.30;;;;;;;8.20;64.76;100142.34;5054433;28;20029;-54
2022/04/24 03:52:38;;;;;;;21.65;12.73;;;;;;;8.18;64.77;100139.06;5054653;28;20074;-52
2022/04/24 03:55:04;;;;;;;21.25;12.15;;;;;;;8.14;65.43;100143.53;5072090;28;20039;-53
2022/04/24 03:57:30;;;;;;;21.27;12.45;;;;;;;8.15;65.31;100147.94;5071586;28;20078;-53
2022/04/24 03:59:55;;;;;;;22.25;13.02;;;;;;;8.07;65.78;100145.91;5072227;28;20035;-53
2022/04/24 04:02:21;;;;;;;22.00;12.85;;;;;;;8.07;66.00;100143.97;5071707;28;20032;-53
2022/04/24 04:04:46;;;;;;;22.33;13.60;;;;;;;8.04;66.22;100146.50;5072106;28;20388;-53
2022/04/24 04:07:11;;;;;;;20.77;12.05;;;;;;;8.04;66.08;100146.50;5072208;28;20461;-54
2022/04/24 04:09:37;;;;;;;20.33;12.25;;;;;;;8.02;66.32;100146.03;5055924;28;20550;-52
2022/04/24 04:12:02;;;;;;;22.33;12.85;;;;;;;8.00;66.37;100145.50;5075501;28;20040;-53
2022/04/24 04:14:28;;;;;;;22.73;13.38;;;;;;;7.95;66.92;100144.47;5075261;28;20024;-53
2022/04/24 04:16:54;;;;;;;20.58;12.07;;;;;;;7.92;66.74;100136.84;5057594;28;20467;-53
2022/04/24 04:19:19;;;;;;;22.23;13.50;;;;;;;7.90;67.04;100147.34;5075023;28;20041;-53
2022/04/24 04:21:45;;;;;;;21.45;12.82;;;;;;;7.87;67.39;100150.69;5075931;28;20032;-53
2022/04/24 04:24:11;;;;;;;22.88;13.48;;;;;;;7.86;67.44;100145.50;5076048;28;20142;-53
2022/04/24 04:26:36;;;;;;;21.20;12.52;;;;;;;7.82;67.66;100150.81;5075160;28;20052;-54
2022/04/24 04:29:02;;;;;;;21.92;12.10;;;;;;;7.84;67.49;100156.00;5075531;28;20418;-51
2022/04/24 04:31:27;;;;;;;22.98;13.25;;;;;;;7.83;67.70;100157.09;5075821;28;20127;-53
2022/04/24 04:33:53;;;;;;;21.50;12.80;;;;;;;7.81;67.66;100158.22;5075391;28;20036;-53
2022/04/24 04:36:18;;;;;;;21.55;12.85;;;;;;;7.83;67.81;100155.19;5074890;28;20029;-50
2022/04/24 04:38:44;;;;;;;22.30;12.98;;;;;;;7.83;67.80;100160.69;5075090;28;20461;-52
2022/04/24 04:41:09;;;;;;;22.58;13.30;;;;;;;7.81;67.91;100171.19;5074800;28;20412;-52
2022/04/24 04:43:34;;;;;;;22.13;13.27;;;;;;;7.80;68.39;100166.81;5040766;28;20032;-52
2022/04/24 04:46:00;;;;;;;21.20;12.60;;;;;;;7.77;68.34;100162.72;5075137;28;20376;-51
2022/04/24 04:48:26;;;;;;;21.27;12.15;;;;;;;7.83;68.43;100171.72;5075349;28;20027;-50
2022/04/24 04:50:51;;;;;;;22.13;12.65;;;;;;;7.77;68.45;100178.41;5075012;28;20120;-53
2022/04/24 04:53:17;;;;;;;21.60;12.27;;;;;;;7.78;68.23;100171.78;5074573;28;20023;-51
2022/04/24 04:55:42;;;;;;;21.90;12.38;;;;;;;7.76;68.42;100177.63;5074412;28;20078;-53
2022/04/24 04:58:07;;;;;;;22.83;12.20;;;;;;;7.77;68.47;100178.41;5075146;28;20020;-53
2022/04/24 05:00:33;;;;;;;22.27;12.32;;;;;;;7.77;68.40;100186.69;5075068;28;20078;-53
2022/04/24 05:02:58;;;;;;;21.10;11.95;;;;;;;7.79;68.35;100173.44;5074870;28;20031;-50
2022/04/24 05:05:24;;;;;;;20.35;11.50;;;;;;;7.79;68.56;100193.50;5074830;28;20391;-52
2022/04/24 05:07:49;;;;;;;21.38;12.77;;;;;;;7.79;68.81;100187.19;5074210;28;20028;-51
2022/04/24 05:10:14;;;;;;;21.70;11.82;;;;;;;7.81;68.78;100190.47;5074756;28;20497;-53
2022/04/24 05:12:40;;;;;;;21.10;11.65;;;;;;;7.83;68.36;100204.75;5074143;28;20027;-52
2022/04/24 05:15:07;;;;;;;20.17;11.23;;;;;;;7.84;68.24;100198.09;5074304;28;20440;-52
2022/04/24 05:17:34;;;;;;;20.00;11.50;;;;;;;7.86;68.02;100201.38;5074498;28;20035;-53
2022/04/24 05:20:00;;;;;;;20.75;11.90;;;;;;;7.88;68.28;100201.09;5073838;28;20028;-53
2022/04/24 05:22:25;;;;;;;21.90;11.60;;;;;;;7.94;68.19;100206.19;5074529;28;20066;-53
2022/04/24 05:24:50;;;;;;;20.58;11.45;;;;;;;7.93;68.18;100210.06;5055966;28;20032;-53
2022/04/24 05:27:16;;;;;;;22.92;12.52;;;;;;;7.96;67.75;100214.97;5072949;28;20493;-53
2022/04/24 05:29:42;;;;;;;21.77;12.07;;;;;;;8.00;67.78;100208.84;5073391;28;20021;-54
2022/04/24 05:32:07;;;;;;;20.27;11.60;;;;;;;8.01;67.63;100222.31;5073397;28;20024;-54
2022/04/24 05:34:33;;;;;;;21.27;11.98;;;;;;;8.07;67.41;100220.28;5073774;28;20024;-53
2022/04/24 05:36:58;;;;;;;21.05;11.65;;;;;;;8.10;67.47;100225.19;5073768;28;20029;-60
2022/04/24 05:39:23;;;;;;;20.65;11.65;;;;;;;8.15;67.13;100225.09;5074025;28;20084;-55
2022/04/24 05:41:49;;;;;;;21.67;12.30;;;;;;;8.15;67.53;100227.03;5073723;28;20373;-54
2022/04/24 05:44:14;;;;;;;21.13;11.55;;;;;;;8.18;67.55;100221.72;5073948;28;20186;-54
2022/04/24 05:46:39;;;;;;;21.40;12.18;;;;;;;8.19;66.56;100217.84;5054864;28;20496;-53
2022/04/24 05:49:04;;;;;;;20.98;11.70;;;;;;;8.23;66.61;100216.09;5073552;28;20059;-53
2022/04/24 05:51:30;;;;;;;21.67;11.88;;;;;;;8.24;66.45;100225.19;5073247;28;20024;-53
2022/04/24 05:53:55;;;;;;;21.63;11.32;;;;;;;8.30;66.36;100221.22;5073130;28;20028;-52
2022/04/24 05:56:21;;;;;;;20.08;11.60;;;;;;;8.36;66.08;100224.69;5073442;28;20445;-54
2022/04/24 05:58:46;;;;;;;20.80;11.43;;;;;;;8.42;65.68;100224.28;5073738;28;20476;-53
2022/04/24 06:01:12;;;;;;;22.13;11.27;;;;;;;8.48;65.49;100224.19;5073505;28;20157;-54
2022/04/24 06:03:40;;;;;;;20.85;10.85;;;;;;;8.51;64.97;100229.91;5073070;28;20025;-54
2022/04/24 06:06:06;;;;;;;20.50;11.15;;;;;;;8.58;64.81;100223.97;5055087;28;20032;-53
2022/04/24 06:08:32;;;;;;;20.30;11.07;;;;;;;8.66;64.49;100236.25;5072793;28;20176;-53
2022/04/24 06:10:57;;;;;;;19.73;11.02;;;;;;;8.67;64.66;100224.09;5072968;28;20050;-52
2022/04/24 06:13:22;;;;;;;20.33;11.23;;;;;;;8.73;64.51;100236.63;5054896;28;20054;-53
2022/04/24 06:15:48;;;;;;;19.50;10.75;;;;;;;8.77;63.85;100248.69;5072989;28;20059;-54
2022/04/24 06:18:13;;;;;;;21.25;11.75;;;;;;;8.85;64.35;100244.38;5073205;28;20171;-53
2022/04/24 06:20:39;;;;;;;20.60;11.13;;;;;;;8.92;63.51;100244.78;5073409;28;20044;-52
2022/04/24 06:23:04;;;;;;;20.52;10.90;;;;;;;8.99;63.39;100241.59;5072754;28;20194;-53
2022/04/24 06:25:32;;;;;;;21.33;10.73;;;;;;;8.98;62.65;100234.44;5072453;28;20032;-53
2022/04/24 06:27:58;;;;;;;19.67;10.98;;;;;;;9.12;62.77;100237.97;5072830;28;20073;-53
2022/04/24 06:30:29;;;;;;;21.60;11.77;;;;;;;9.21;62.42;100236.09;5072390;28;20357;-53
2022/04/24 06:32:57;;;;;;;21.40;10.88;;;;;;;9.30;62.15;100232.59;5072295;28;20043;-53
2022/04/24 06:35:23;;;;;;;20.02;10.70;;;;;;;9.37;61.73;100232.97;5073064;28;20139;-53
2022/04/24 06:37:53;;;;;;;22.10;11.38;;;;;;;9.42;61.49;100232.03;5072491;28;20025;-52
2022/04/24 06:40:19;;;;;;;20.55;11.15;;;;;;;9.51;61.18;100241.19;5072713;28;20033;-52
2022/04/24 06:42:55;;;;;;;20.98;11.52;;;;;;;9.64;61.13;100250.53;5072432;28;20032;-53
2022/04/24 06:45:41;;;;;;;21.23;11.82;;;;;;;9.71;60.92;100228.84;5054654;28;20032;-54
2022/04/24 06:48:12;;;;;;;21.70;12.48;;;;;;;9.83;60.44;100242.06;5071539;28;20041;-52
2022/04/24 06:50:39;;;;;;;20.45;11.07;;;;;;;9.89;59.91;100242.75;5072074;28;20033;-53
2022/04/24 06:53:06;;;;;;;20.88;11.80;;;;;;;9.92;59.42;100250.41;5054264;28;20035;-53
2022/04/24 06:55:37;;;;;;;22.00;11.75;;;;;;;9.84;58.89;100236.22;5072651;28;20032;-53
2022/04/24 06:58:03;;;;;;;22.58;12.35;;;;;;;9.97;58.79;100253.03;5071765;28;20032;-50
2022/04/24 07:00:30;;;;;;;20.90;11.50;;;;;;;10.00;59.12;100244.13;5072493;28;20445;-53
2022/04/24 07:02:56;;;;;;;21.45;11.77;;;;;;;10.17;58.45;100261.91;5072236;28;20028;-53
2022/04/24 07:05:23;;;;;;;21.13;11.48;;;;;;;10.18;58.13;100274.59;5072404;28;20119;-53
2022/04/24 07:07:48;;;;;;;20.50;11.43;;;;;;;10.24;58.23;100249.28;5071890;28;20033;-54
2022/04/24 07:10:14;;;;;;;20.17;11.38;;;;;;;10.29;58.03;100253.84;5072680;28;20437;-53
2022/04/24 07:12:50;;;;;;;20.98;11.52;;;;;;;10.42;57.64;100249.38;5072165;28;20499;-53
2022/04/24 07:15:17;;;;;;;22.15;11.68;;;;;;;10.48;57.40;100255.59;5072673;28;20028;-53
2022/04/24 07:17:43;;;;;;;21.27;11.80;;;;;;;10.53;57.17;100253.47;5072277;28;20031;-54
2022/04/24 07:20:10;;;;;;;20.42;10.95;;;;;;;10.58;57.25;100253.31;5071971;28;20028;-53
2022/04/24 07:22:46;;;;;;;20.23;11.40;;;;;;;10.67;56.47;100258.06;5054268;28;20098;-54
2022/04/24 07:25:14;;;;;;;20.30;11.65;;;;;;;10.73;56.33;100260.38;5072530;28;20115;-54
2022/04/24 07:27:39;;;;;;;22.05;11.70;;;;;;;10.80;56.37;100264.59;5072487;28;20127;-53
2022/04/24 07:30:08;;;;;;;21.05;11.38;;;;;;;10.93;56.39;100264.47;5072679;28;20108;-53
2022/04/24 07:32:56;;;;;;;20.58;11.50;;;;;;;11.06;55.69;100267.44;5070518;28;20092;-52
2022/04/24 07:35:27;;;;;;;22.02;12.18;;;;;;;11.08;55.40;100267.94;5060871;28;20056;-54
2022/04/24 07:37:53;;;;;;;22.35;11.57;;;;;;;11.13;54.73;100278.03;5072300;28;20020;-55
2022/04/24 07:40:20;;;;;;;21.52;11.20;;;;;;;11.18;55.02;100275.91;5072005;28;20380;-55
2022/04/24 07:43:06;;;;;;;20.60;11.02;;;;;;;11.21;54.35;100280.78;5068366;28;20028;-55
2022/04/24 07:45:33;;;;;;;20.80;11.45;;;;;;;11.24;54.36;100274.63;5073525;28;20035;-54
2022/04/24 07:48:00;;;;;;;20.67;11.52;;;;;;;11.31;54.67;100270.53;5072503;28;20097;-55
2022/04/24 07:50:29;;;;;;;21.58;11.75;;;;;;;11.34;54.74;100264.34;5073810;28;20108;-53
2022/04/24 07:52:54;;;;;;;20.27;11.38;;;;;;;11.52;54.24;100262.41;5061027;28;20461;-52
2022/04/24 07:55:24;;;;;;;21.10;11.30;;;;;;;11.68;54.04;100271.84;5053431;28;20024;-54
2022/04/24 07:57:53;;;;;;;20.67;11.73;;;;;;;11.70;52.59;100265.97;5055621;28;20508;-52
2022/04/24 08:00:22;;;;;;;21.15;11.25;;;;;;;11.79;52.61;100268.72;5052629;28;20377;-53
2022/04/24 08:02:49;;;;;;;23.92;12.23;;;;;;;11.84;52.80;100257.47;5073602;28;20031;-55
2022/04/24 08:05:24;;;;;;;21.85;12.05;;;;;;;11.96;52.18;100259.53;5073786;28;20032;-54
2022/04/24 08:07:50;;;;;;;20.35;11.65;;;;;;;12.04;52.28;100266.25;5073544;28;20032;-54
2022/04/24 08:10:19;;;;;;;21.27;11.68;;;;;;;12.13;52.00;100259.56;5073587;28;20028;-53
2022/04/24 08:12:44;;;;;;;20.40;11.88;;;;;;;12.23;51.50;100274.19;5054518;28;20458;-54
2022/04/24 08:15:10;;;;;;;21.13;11.60;;;;;;;12.30;50.78;100272.53;5053290;28;20049;-53
2022/04/24 08:17:35;;;;;;;23.10;12.35;;;;;;;12.39;51.02;100280.00;5053322;28;20394;-54
2022/04/24 08:20:01;;;;;;;21.48;12.32;;;;;;;12.45;50.81;100273.94;5053178;28;20132;-53
2022/04/24 08:22:39;;;;;;;21.17;11.68;;;;;;;12.52;51.05;100267.88;5053364;28;20029;-53
2022/04/24 08:25:06;;;;;;;20.40;11.20;;;;;;;12.69;51.02;100274.47;5034815;28;20401;-53
2022/04/24 08:27:32;;;;;;;22.60;11.73;;;;;;;12.73;50.77;100269.91;5053183;28;20061;-52
2022/04/24 08:29:57;;;;;;;21.17;12.07;;;;;;;12.84;50.02;100275.88;5053136;28;20025;-54
2022/04/24 08:32:24;;;;;;;21.38;11.85;;;;;;;12.91;50.41;100271.41;5053343;28;20354;-54
2022/04/24 08:34:50;;;;;;;22.10;12.00;;;;;;;12.96;49.74;100273.19;5053668;28;20119;-54
2022/04/24 08:37:15;;;;;;;22.17;12.68;;;;;;;12.99;48.79;100275.28;5060292;28;20512;-54
2022/04/24 08:39:40;;;;;;;20.73;12.52;;;;;;;12.99;49.17;100275.28;5072284;28;20047;-54
2022/04/24 08:42:09;;;;;;;22.02;12.18;;;;;;;13.10;49.21;100284.84;5072440;28;20040;-54
2022/04/24 08:44:35;;;;;;;22.52;13.27;;;;;;;13.15;48.99;100277.47;5073101;28;20040;-54
2022/04/24 08:47:00;;;;;;;22.25;12.65;;;;;;;13.27;48.40;100285.91;5072897;28;20325;-51
2022/04/24 08:49:27;;;;;;;20.33;11.82;;;;;;;13.32;48.86;100282.09;5072509;28;20337;-51
2022/04/24 08:51:53;;;;;;;22.38;12.38;;;;;;;13.42;48.61;100284.47;5072615;28;20071;-52
2022/04/24 08:54:19;;;;;;;21.70;12.50;;;;;;;13.55;47.71;100277.03;5072119;28;20040;-53
2022/04/24 08:56:44;;;;;;;22.08;12.75;;;;;;;13.64;48.08;100280.56;5072267;28;20077;-54
2022/04/24 08:59:10;;;;;;;22.63;12.85;;;;;;;13.75;47.68;100286.50;5072276;28;20081;-55
2022/04/24 09:01:44;;;;;;;22.52;12.90;;;;;;;13.83;47.66;100282.81;5072069;28;20028;-53
2022/04/24 09:04:09;;;;;;;22.75;13.25;;;;;;;13.92;46.80;100285.53;5071369;28;20035;-50
2022/04/24 09:06:35;;;;;;;23.02;12.93;;;;;;;13.99;47.29;100285.75;5072207;28;20033;-54
2022/04/24 09:09:06;;;;;;;21.95;12.95;;;;;;;14.11;47.11;100282.19;5072220;28;20032;-55
2022/04/24 09:11:33;;;;;;;21.10;12.82;;;;;;;14.16;45.88;100286.72;5071948;28;20036;-54
2022/04/24 09:14:19;;;;;;;21.92;13.48;;;;;;;14.24;46.50;100283.03;5072165;28;20033;-54
2022/04/24 09:16:53;;;;;;;21.63;12.50;;;;;;;14.25;45.66;100284.66;5072288;28;20064;-54
2022/04/24 09:19:25;;;;;;;21.95;13.15;;;;;;;14.12;45.50;100283.03;5072433;28;20421;-52
2022/04/24 09:22:05;;;;;;;21.75;13.13;;;;;;;14.15;45.95;100297.06;5071813;28;20135;-52
2022/04/24 09:24:41;;;;;;;22.20;13.30;;;;;;;14.08;45.02;100294.00;5071985;28;20064;-54
2022/04/24 09:27:07;;;;;;;21.33;12.75;;;;;;;14.29;46.10;100299.50;5071530;28;20080;-54
2022/04/24 09:29:32;;;;;;;21.48;12.98;;;;;;;14.38;45.10;100293.84;5053090;28;20700;-53
2022/04/24 09:31:58;;;;;;;23.60;12.88;;;;;;;14.43;45.32;100282.50;5071586;28;20077;-55
2022/04/24 09:34:30;;;;;;;22.73;12.77;;;;;;;14.65;44.91;100294.31;5071185;28;20074;-52
2022/04/24 09:37:03;;;;;;;21.88;12.52;;;;;;;14.69;44.56;100297.28;5071478;28;20163;-53
2022/04/24 09:39:29;;;;;;;;;;;;;;;14.72;45.02;100299.34;5071582;28;20025;-54
2022/04/24 09:42:01;;;;;;;21.48;12.80;;;;;;;14.64;44.30;100292.72;5053196;28;19908;-55
2022/04/24 09:44:40;;;;;;;20.95;13.13;;;;;;;14.64;44.10;100285.16;5071710;28;20461;-53
2022/04/24 09:47:06;;;;;;;23.25;13.32;;;;;;;14.80;44.53;100303.97;5071434;28;20028;-53
2022/04/24 09:49:35;;;;;;;21.52;12.57;;;;;;;14.85;43.95;100300.16;5071554;28;20116;-51
2022/04/24 09:52:01;;;;;;;21.73;13.93;;;;;;;14.96;43.92;100287.38;5053873;28;20039;-51
2022/04/24 09:54:27;;;;;;;22.27;13.18;;;;;;;15.06;44.04;100295.25;5071849;28;20033;-54
2022/04/24 09:56:53;;;;;;;21.02;12.38;;;;;;;15.17;44.06;100294.78;5071071;28;20051;-52
2022/04/24 09:59:19;;;;;;;22.42;13.07;;;;;;;15.19;44.16;100296.06;5071580;28;20067;-54
2022/04/24 10:01:45;;;;;;;21.52;12.90;;;;;;;15.32;43.51;100305.19;5071652;28;20435;-54
2022/04/24 10:04:11;;;;;;;21.80;11.93;;;;;;;15.40;43.62;100287.53;5070462;28;20117;-52
2022/04/24 10:06:37;;;;;;;22.65;13.32;;;;;;;15.34;42.51;100296.50;5051387;28;20115;-52
2022/04/24 10:09:04;;;;;;;21.23;12.73;;;;;;;15.32;43.03;100296.03;5053055;28;20024;-53
2022/04/24 10:11:30;;;;;;;21.38;12.43;;;;;;;15.35;43.01;100296.13;5071002;28;20032;-54
2022/04/24 10:14:01;;;;;;;23.60;13.25;;;;;;;15.41;43.19;100280.00;5070733;28;20078;-55
2022/04/24 10:17:04;;;;;;;21.55;12.45;;;;;;;15.72;43.06;100284.06;5071417;28;20028;-53
2022/04/24 10:19:39;;;;;;;25.90;12.68;;;;;;;15.71;41.45;100288.00;5070814;28;20040;-53
2022/04/24 10:22:29;;;;;;;21.95;12.50;;;;;;;15.79;42.02;100297.38;5070904;28;20032;-53
2022/04/24 10:25:00;;;;;;;21.35;11.85;;;;;;;15.85;41.46;100290.44;5070798;28;20017;-53
2022/04/24 10:27:48;;;;;;;20.05;12.18;;;;;;;15.81;42.42;100292.25;5070489;28;20040;-53
2022/04/24 10:30:25;;;;;;;20.55;11.98;;;;;;;15.91;42.41;100289.00;5069020;28;20056;-53
2022/04/24 10:33:12;;;;;;;22.38;12.80;;;;;;;16.14;42.28;100299.56;5069041;28;20032;-54
2022/04/24 10:35:48;;;;;;;22.85;13.10;;;;;;;16.07;39.97;100294.59;5070699;28;20074;-53
2022/04/24 10:38:13;;;;;;;21.50;11.85;;;;;;;16.20;40.51;100293.34;5070552;28;20025;-53
2022/04/24 10:40:39;;;;;;;20.70;12.07;;;;;;;16.31;40.32;100301.19;5070691;28;20032;-53
2022/04/24 10:43:07;;;;;;;20.95;11.13;;;;;;;16.28;39.89;100302.75;5070750;28;20028;-55
2022/04/24 10:45:44;;;;;;;20.65;11.93;;;;;;;16.28;40.62;100296.34;5070773;28;20115;-53
2022/04/24 10:48:14;;;;;;;20.65;12.10;;;;;;;16.26;40.15;100305.06;5070210;28;20063;-54
2022/04/24 10:50:47;;;;;;;20.88;11.93;;;;;;;16.19;40.61;100299.31;5070436;28;20032;-54
2022/04/24 10:53:13;;;;;;;20.85;12.05;;;;;;;16.28;40.77;100307.53;5070608;28;20037;-54
2022/04/24 10:55:38;;;;;;;20.45;12.45;;;;;;;16.30;40.05;100308.78;5069335;28;20021;-53
2022/04/24 10:58:05;;;;;;;19.83;11.43;;;;;;;16.39;40.54;100297.41;5052582;28;20178;-56
2022/04/24 11:00:34;;;;;;;20.35;11.25;;;;;;;16.51;40.95;100297.34;5071022;28;20025;-54
2022/04/24 11:03:09;;;;;;;20.25;11.82;;;;;;;16.52;40.27;100271.03;5068172;28;20028;-55
2022/04/24 11:05:44;;;;;;;20.95;12.18;;;;;;;16.55;39.72;100297.44;5051187;28;20139;-54
2022/04/24 11:08:17;;;;;;;21.90;12.15;;;;;;;16.47;40.31;100301.22;5070132;28;20108;-54
2022/04/24 11:10:44;;;;;;;20.45;11.65;;;;;;;16.48;40.75;100297.25;5070282;28;20036;-54
2022/04/24 11:13:11;;;;;;;22.25;12.05;;;;;;;16.25;39.88;100269.94;5051730;28;20028;-54
2022/04/24 11:15:40;;;;;;;21.58;11.73;;;;;;;16.62;40.69;100292.06;5069897;28;20033;-54